Time;durP1;ratioP1;P1;durP2;ratioP2;P2;SDS_P1;SDS_P2;PMS_P1;PMS_P2;Temp;Humidity;BMP_temperature;BMP_pressure;BME280_temperature;BME280_humidity;BME280_pressure;Samples;Min_cycle;Max_cycle;Signal;HPM_P1;HPM_P2
2023/09/16 00:02:23;;;;;;;6.50;6.00;;;;;;;13.82;100.00;99600.00;4870676;29;20234;-89
2023/09/16 00:04:51;;;;;;;7.00;6.30;;;;;;;13.76;100.00;99595.59;4883455;29;20207;-89
2023/09/16 00:07:18;;;;;;;6.83;6.20;;;;;;;13.73;100.00;99599.56;4871578;29;20259;-89
2023/09/16 00:09:47;;;;;;;6.87;6.27;;;;;;;13.64;100.00;99596.47;4871432;29;20302;-89
2023/09/16 00:12:14;;;;;;;7.30;6.60;;;;;;;13.59;100.00;99590.97;4878863;29;20203;-88
2023/09/16 00:14:44;;;;;;;6.30;5.80;;;;;;;13.55;100.00;99594.38;4871730;29;20211;-90
2023/09/16 00:17:13;;;;;;;6.67;5.97;;;;;;;13.51;100.00;99594.06;4850099;29;20233;-88
2023/09/16 00:19:41;;;;;;;6.60;6.10;;;;;;;13.48;100.00;99594.53;4864645;29;20242;-89
2023/09/16 00:22:13;;;;;;;6.80;6.20;;;;;;;13.45;100.00;99591.47;4875801;29;20207;-88
2023/09/16 00:24:45;;;;;;;6.50;5.90;;;;;;;13.43;100.00;99589.06;4890168;29;20660;-88
2023/09/16 00:27:12;;;;;;;6.53;6.03;;;;;;;13.37;100.00;99587.31;4883563;29;20211;-88
2023/09/16 00:29:43;;;;;;;6.63;6.10;;;;;;;13.35;100.00;99578.66;4868451;29;20299;-88
2023/09/16 00:32:13;;;;;;;6.70;6.10;;;;;;;13.33;100.00;99580.78;4877275;29;20211;-88
2023/09/16 00:41:01;;;;;;;6.10;5.60;;;;;;;13.31;100.00;99582.88;5265532;23;20265;-87
2023/09/16 00:43:29;;;;;;;6.47;5.87;;;;;;;13.28;100.00;99575.28;4902301;29;20195;-87
2023/09/16 00:46:00;;;;;;;6.30;5.80;;;;;;;13.28;100.00;99577.16;4888914;29;20357;-86
2023/09/16 00:54:54;;;;;;;6.63;6.13;;;;;;;13.20;100.00;99576.47;5353551;23;20248;-85
2023/09/16 00:57:23;;;;;;;6.70;6.20;;;;;;;13.19;100.00;99565.94;4906280;29;20273;-85
2023/09/16 05:38:30;;;;;;;9.80;8.87;;;;;;;15.06;100.00;99611.50;3375314;23;20254;-88
2023/09/16 05:40:59;;;;;;;8.93;8.20;;;;;;;15.22;100.00;99613.31;4831989;29;20208;-88
2023/09/16 05:43:27;;;;;;;8.87;8.17;;;;;;;15.36;100.00;99601.06;4841831;29;20220;-89
2023/09/16 05:45:54;;;;;;;8.57;7.73;;;;;;;15.48;100.00;99595.56;4841225;29;20299;-89
2023/09/16 05:48:24;;;;;;;8.40;7.70;;;;;;;15.61;100.00;99587.09;4834403;29;20241;-89
2023/09/16 05:51:19;;;;;;;8.30;7.50;;;;;;;15.78;100.00;99591.34;4823200;29;20300;-89
2023/09/16 05:53:51;;;;;;;8.37;7.67;;;;;;;15.93;100.00;99590.69;4841134;29;20709;-88
2023/09/16 05:56:19;;;;;;;7.33;6.67;;;;;;;16.04;100.00;99588.91;4826611;29;20217;-90
2023/09/16 05:58:50;;;;;;;7.27;6.67;;;;;;;16.28;100.00;99587.50;4826962;29;20256;-91
2023/09/16 06:01:19;;;;;;;7.30;6.60;;;;;;;16.34;100.00;99585.63;4812218;29;20217;-88
2023/09/16 06:03:52;;;;;;;7.43;6.73;;;;;;;16.51;100.00;99589.03;4813752;29;20292;-88
2023/09/16 06:06:21;;;;;;;7.27;6.57;;;;;;;16.60;100.00;99587.50;4825912;29;20300;-88
2023/09/16 06:08:55;;;;;;;7.10;6.40;;;;;;;16.65;100.00;99585.66;4827555;29;20245;-88
2023/09/16 06:11:28;;;;;;;5.83;5.37;;;;;;;16.81;100.00;99583.03;4827181;29;20205;-89
2023/09/16 06:13:59;;;;;;;6.33;5.80;;;;;;;16.88;100.00;99584.44;4825914;29;20233;-88
2023/09/16 06:16:28;;;;;;;6.10;5.50;;;;;;;17.02;100.00;99572.09;4823357;29;20292;-88
2023/09/16 06:19:06;;;;;;;5.83;5.00;;;;;;;17.28;100.00;99577.59;4824969;29;20259;-89
2023/09/16 06:21:34;;;;;;;5.57;5.07;;;;;;;17.36;100.00;99577.91;4819665;29;20208;-88
2023/09/16 06:24:04;;;;;;;5.57;5.07;;;;;;;17.50;100.00;99570.91;4829987;29;20681;-89
2023/09/16 06:26:32;;;;;;;5.23;4.83;;;;;;;17.69;100.00;99582.09;4815035;29;20206;-88
2023/09/16 06:29:02;;;;;;;5.20;4.70;;;;;;;17.82;100.00;99578.09;4824541;29;20212;-88
2023/09/16 06:31:30;;;;;;;5.10;4.70;;;;;;;17.98;100.00;99574.31;4824095;29;20210;-87
2023/09/16 06:34:06;;;;;;;4.53;4.13;;;;;;;18.07;100.00;99572.69;4842265;29;20210;-87
2023/09/16 06:36:55;;;;;;;4.73;4.33;;;;;;;18.21;100.00;99562.94;4809481;29;20221;-88
2023/09/16 06:39:28;;;;;;;6.20;4.30;;;;;;;18.40;100.00;99564.03;4831665;29;20249;-87
2023/09/16 06:41:58;;;;;;;4.37;3.97;;;;;;;18.57;100.00;99566.47;4830296;29;20244;-89
2023/09/16 06:44:32;;;;;;;4.33;4.03;;;;;;;18.66;100.00;99553.19;4828227;29;20266;-88
2023/09/16 06:47:09;;;;;;;5.57;4.00;;;;;;;18.80;100.00;99551.53;4811286;29;20301;-88
2023/09/16 06:49:36;;;;;;;4.27;3.90;;;;;;;18.90;100.00;99554.19;4827379;29;20729;-87
2023/09/16 06:52:06;;;;;;;4.10;3.80;;;;;;;19.05;100.00;99562.31;4839235;29;20207;-88
2023/09/16 06:54:34;;;;;;;4.17;3.87;;;;;;;19.21;100.00;99563.91;4814741;29;20209;-79
2023/09/16 06:57:02;;;;;;;3.80;3.50;;;;;;;19.39;100.00;99556.22;4837618;29;20205;-78
2023/09/16 06:59:34;;;;;;;5.77;3.87;;;;;;;19.50;100.00;99561.34;4832688;29;20229;-77
2023/09/16 07:02:03;;;;;;;4.13;3.83;;;;;;;19.63;100.00;99554.50;4825444;29;20208;-77
2023/09/16 07:04:36;;;;;;;5.70;3.67;;;;;;;19.75;100.00;99553.03;4825452;29;20204;-77
2023/09/16 07:07:05;;;;;;;3.63;3.20;;;;;;;20.02;100.00;99559.94;4830729;29;20223;-77
2023/09/16 07:09:33;;;;;;;3.30;3.10;;;;;;;20.24;100.00;99563.03;4832680;29;20233;-76
2023/09/16 07:12:00;;;;;;;3.20;3.00;;;;;;;20.39;100.00;99564.88;4832304;29;20196;-77
2023/09/16 07:14:37;;;;;;;3.30;3.00;;;;;;;20.60;100.00;99561.66;4846051;29;20290;-76
2023/09/16 07:17:06;;;;;;;3.30;3.00;;;;;;;20.79;100.00;99558.22;4831749;29;20244;-77
2023/09/16 07:19:34;;;;;;;3.10;2.90;;;;;;;20.95;100.00;99560.47;4831117;29;20252;-76
2023/09/16 07:22:01;;;;;;;2.90;2.70;;;;;;;21.15;100.00;99556.75;4832822;29;20685;-77
2023/09/16 07:24:31;;;;;;;3.90;2.80;;;;;;;21.24;100.00;99559.63;4835378;29;20303;-79
2023/09/16 07:27:04;;;;;;;3.15;2.70;;;;;;;21.37;100.00;99558.94;4831389;29;20192;-77
2023/09/16 07:29:32;;;;;;;3.40;3.10;;;;;;;21.44;100.00;99552.03;4832805;29;20230;-77
2023/09/16 07:32:02;;;;;;;2.88;2.50;;;;;;;21.60;100.00;99554.56;4831481;29;20209;-78
2023/09/16 07:34:30;;;;;;;3.38;2.70;;;;;;;21.70;100.00;99549.75;4832669;29;20301;-79
2023/09/16 07:37:03;;;;;;;2.90;2.63;;;;;;;21.80;100.00;99552.34;4839267;29;20201;-80
2023/09/16 07:39:31;;;;;;;2.80;2.60;;;;;;;21.89;100.00;99555.19;4842982;29;20275;-77
2023/09/16 07:42:03;;;;;;;5.05;3.08;;;;;;;21.98;100.00;99560.84;4842779;29;20278;-77
2023/09/16 07:44:31;;;;;;;4.40;3.13;;;;;;;21.88;100.00;99559.06;4841280;29;20229;-77
2023/09/16 07:47:08;;;;;;;3.58;3.35;;;;;;;21.82;100.00;99557.50;4836218;29;20664;-76
2023/09/16 07:49:35;;;;;;;3.67;3.47;;;;;;;21.74;100.00;99555.44;4835706;29;20229;-77
2023/09/16 07:52:09;;;;;;;3.28;3.05;;;;;;;21.69;100.00;99550.88;4834719;29;20274;-78
2023/09/16 07:54:39;;;;;;;5.25;3.72;;;;;;;21.70;100.00;99554.38;4838726;29;20678;-76
2023/09/16 07:57:12;;;;;;;6.80;3.50;;;;;;;21.62;100.00;99549.59;4833424;29;20220;-76
2023/09/16 07:59:45;;;;;;;3.97;3.45;;;;;;;21.66;100.00;99548.72;4837503;29;20253;-76
2023/09/16 08:02:12;;;;;;;3.92;3.60;;;;;;;21.70;100.00;99548.94;4839459;29;20220;-78
2023/09/16 08:04:40;;;;;;;4.80;3.28;;;;;;;21.81;100.00;99553.16;4836827;29;20679;-77
2023/09/16 08:07:11;;;;;;;4.35;3.03;;;;;;;21.88;100.00;99548.94;4836258;29;20216;-77
2023/09/16 08:09:38;;;;;;;4.40;3.70;;;;;;;22.05;100.00;99558.56;4840327;29;20210;-77
2023/09/16 08:12:08;;;;;;;3.63;3.33;;;;;;;22.14;100.00;99552.13;4832020;29;20724;-76
2023/09/16 08:14:37;;;;;;;4.22;3.75;;;;;;;22.16;100.00;99558.06;4835230;29;20220;-77
2023/09/16 08:17:05;;;;;;;5.40;3.40;;;;;;;22.29;100.00;99559.25;4831367;29;20702;-77
2023/09/16 08:19:33;;;;;;;4.65;3.38;;;;;;;22.32;100.00;99556.75;4828826;29;20225;-78
2023/09/16 08:22:00;;;;;;;3.47;3.05;;;;;;;22.32;100.00;99566.84;4831899;29;20216;-78
2023/09/16 08:24:31;;;;;;;4.28;3.00;;;;;;;22.37;100.00;99550.38;4831391;29;20253;-76
2023/09/16 08:26:58;;;;;;;3.95;3.50;;;;;;;22.21;100.00;99554.50;4834860;29;20194;-76
2023/09/16 08:29:25;;;;;;;4.47;3.13;;;;;;;22.16;100.00;99558.06;4833357;29;20266;-77
2023/09/16 08:31:55;;;;;;;3.53;3.22;;;;;;;22.20;100.00;99550.94;4834716;29;20273;-78
2023/09/16 08:34:23;;;;;;;4.82;3.75;;;;;;;22.27;100.00;99556.81;4830769;29;20218;-76
2023/09/16 08:36:51;;;;;;;4.00;3.67;;;;;;;22.38;100.00;99552.00;4828550;29;20217;-77
2023/09/16 08:39:29;;;;;;;3.50;3.20;;;;;;;22.47;100.00;99554.84;4836393;29;20741;-77
2023/09/16 08:42:08;;;;;;;7.22;3.13;;;;;;;22.64;100.00;99546.91;4834950;29;20209;-77
2023/09/16 08:44:37;;;;;;;3.78;3.17;;;;;;;22.65;100.00;99548.53;4836982;29;20220;-77
2023/09/16 08:47:17;;;;;;;3.20;3.00;;;;;;;22.80;100.00;99546.38;4835647;29;20718;-77
2023/09/16 08:49:50;;;;;;;4.00;3.33;;;;;;;22.93;100.00;99549.41;4836984;29;20233;-77
2023/09/16 08:52:21;;;;;;;3.83;3.45;;;;;;;23.00;100.00;99538.91;4828045;29;20213;-77
2023/09/16 08:54:50;;;;;;;3.83;3.42;;;;;;;23.01;100.00;99548.69;4834530;29;20224;-76
2023/09/16 08:57:20;;;;;;;3.55;3.25;;;;;;;23.01;100.00;99549.50;4838033;29;20211;-76
2023/09/16 08:59:53;;;;;;;4.13;3.60;;;;;;;23.07;100.00;99542.84;4837739;29;20685;-76
2023/09/16 09:02:30;;;;;;;4.75;3.25;;;;;;;23.07;100.00;99542.84;4837738;29;20197;-77
2023/09/16 09:05:01;;;;;;;4.38;3.20;;;;;;;23.10;100.00;99538.66;4831151;29;20198;-77
2023/09/16 09:07:28;;;;;;;3.08;2.88;;;;;;;23.28;100.00;99535.81;4837953;29;20217;-76
2023/09/16 09:09:55;;;;;;;5.20;2.95;;;;;;;23.38;100.00;99553.94;4840724;29;20337;-77
2023/09/16 09:12:23;;;;;;;2.88;2.45;;;;;;;23.47;100.00;99543.94;4831787;29;20651;-76
2023/09/16 09:14:54;;;;;;;3.10;2.90;;;;;;;23.61;100.00;99535.69;4829175;29;20216;-77
2023/09/16 09:17:22;;;;;;;2.88;2.67;;;;;;;23.77;100.00;99545.19;4838324;29;20188;-76
2023/09/16 09:19:50;;;;;;;4.13;2.65;;;;;;;23.93;100.00;99537.44;4834434;29;20225;-79
2023/09/16 09:22:18;;;;;;;2.50;2.30;;;;;;;24.05;100.00;99538.50;4829609;29;20212;-80
2023/09/16 09:24:48;;;;;;;2.72;2.53;;;;;;;24.14;100.00;99527.63;4837711;29;20297;-88
2023/09/16 09:27:16;;;;;;;4.90;2.63;;;;;;;24.24;100.00;99538.34;4824736;29;20233;-87
2023/09/16 09:29:43;;;;;;;6.68;2.78;;;;;;;24.24;100.00;99521.13;4840622;29;20277;-87
2023/09/16 09:32:28;;;;;;;3.45;2.63;;;;;;;24.33;100.00;99524.72;4834061;29;20212;-87
2023/09/16 09:35:07;;;;;;;2.88;2.58;;;;;;;24.43;100.00;99525.28;4829846;29;20685;-88
2023/09/16 09:37:40;;;;;;;4.07;2.33;;;;;;;24.45;100.00;99506.59;4829835;29;20751;-87
2023/09/16 09:40:23;;;;;;;4.45;2.70;;;;;;;24.60;100.00;99515.53;4837937;29;20251;-87
2023/09/16 09:42:52;;;;;;;2.63;2.42;;;;;;;24.65;100.00;99507.97;4833559;29;20316;-88
2023/09/16 09:45:24;;;;;;;2.72;2.20;;;;;;;24.83;100.00;99506.13;4834912;29;20229;-87
2023/09/16 09:47:58;;;;;;;2.60;2.40;;;;;;;24.86;100.00;99508.25;4820939;29;20240;-88
2023/09/16 09:50:31;;;;;;;2.58;2.38;;;;;;;24.92;100.00;99504.25;4823823;29;20247;-88
2023/09/16 09:53:07;;;;;;;2.95;2.47;;;;;;;25.09;100.00;99506.25;4832697;29;20235;-88
2023/09/16 09:55:40;;;;;;;3.97;2.40;;;;;;;25.29;100.00;99513.91;4823045;29;20205;-87
2023/09/16 09:58:09;;;;;;;4.05;3.08;;;;;;;25.18;100.00;99513.38;4797582;29;20304;-87
2023/09/16 10:00:46;;;;;;;2.63;2.40;;;;;;;25.27;100.00;99505.16;4822951;29;20240;-86
2023/09/16 10:03:22;;;;;;;4.50;2.60;;;;;;;25.41;100.00;99517.63;4851831;29;20213;-87
2023/09/16 10:05:50;;;;;;;2.42;2.22;;;;;;;25.53;100.00;99516.16;4825664;29;20261;-86
2023/09/16 10:08:21;;;;;;;2.65;2.45;;;;;;;25.53;100.00;99502.47;4840495;29;20279;-86
2023/09/16 10:10:52;;;;;;;2.40;2.20;;;;;;;25.62;100.00;99509.59;4845574;29;20315;-87
2023/09/16 10:13:21;;;;;;;3.55;2.05;;;;;;;25.70;100.00;99495.09;4855040;29;20217;-86
2023/09/16 10:15:49;;;;;;;4.75;2.35;;;;;;;25.80;100.00;99503.00;4825740;29;20236;-86
2023/09/16 10:18:17;;;;;;;2.72;2.42;;;;;;;25.86;100.00;99498.16;4840661;29;20201;-86
2023/09/16 10:20:48;;;;;;;2.72;2.33;;;;;;;25.93;100.00;99503.16;4833379;29;20221;-87
2023/09/16 10:23:21;;;;;;;4.38;2.40;;;;;;;25.91;99.12;99499.91;4854800;29;20205;-88
2023/09/16 10:25:50;;;;;;;2.72;2.45;;;;;;;25.92;99.86;99496.88;4840370;29;20264;-86
2023/09/16 10:28:18;;;;;;;2.35;2.20;;;;;;;26.02;98.48;99493.78;4842874;29;20193;-87
2023/09/16 10:30:48;;;;;;;2.63;2.00;;;;;;;26.15;98.67;99503.78;4854719;29;20220;-86
2023/09/16 10:33:16;;;;;;;4.15;2.17;;;;;;;26.17;98.00;99497.97;4840329;29;20200;-87
2023/09/16 10:35:48;;;;;;;2.30;2.10;;;;;;;26.19;95.70;99498.44;4840044;29;20197;-86
2023/09/16 10:38:18;;;;;;;3.50;2.05;;;;;;;26.28;95.48;99493.78;4833210;29;20276;-86
2023/09/16 10:40:50;;;;;;;3.08;2.30;;;;;;;26.26;95.27;99496.06;4823130;29;20229;-87
2023/09/16 10:43:20;;;;;;;2.08;1.98;;;;;;;26.31;94.09;99489.56;4821780;29;20206;-87
2023/09/16 10:45:53;;;;;;;4.20;2.00;;;;;;;26.34;92.78;99494.41;4848656;29;20213;-86
2023/09/16 10:48:29;;;;;;;2.65;2.20;;;;;;;26.48;93.12;99495.81;4831147;29;20663;-86
2023/09/16 10:51:03;;;;;;;3.53;1.80;;;;;;;26.53;90.92;99500.34;4820495;29;20238;-86
2023/09/16 10:53:39;;;;;;;2.65;2.20;;;;;;;26.48;91.48;99495.81;4824331;29;20201;-87
2023/09/16 10:56:36;;;;;;;2.20;2.00;;;;;;;26.58;90.29;99489.97;4820853;29;20216;-87
2023/09/16 10:59:13;;;;;;;3.00;1.80;;;;;;;26.54;89.30;99490.97;4825567;29;20198;-88
2023/09/16 11:01:49;;;;;;;3.13;2.20;;;;;;;26.57;88.66;99491.09;4838722;29;20287;-87
2023/09/16 11:04:18;;;;;;;2.83;2.50;;;;;;;26.62;89.02;99484.63;4823398;29;20214;-87
2023/09/16 11:06:52;;;;;;;3.38;2.42;;;;;;;26.65;89.53;99490.25;4836417;29;20217;-87
2023/09/16 11:09:20;;;;;;;3.78;2.30;;;;;;;26.61;88.47;99485.75;4837453;29;20210;-87
2023/09/16 11:12:12;;;;;;;3.97;2.80;;;;;;;26.72;89.01;99471.34;4837651;29;20237;-87
2023/09/16 11:14:40;;;;;;;2.47;2.28;;;;;;;26.83;87.32;99481.97;4840924;29;20201;-87
2023/09/16 11:17:15;;;;;;;4.68;2.50;;;;;;;26.74;87.36;99466.31;4837523;29;20284;-87
2023/09/16 11:19:45;;;;;;;2.63;2.00;;;;;;;26.76;87.54;99467.91;4819244;29;20320;-87
2023/09/16 11:22:12;;;;;;;3.97;2.10;;;;;;;26.83;88.91;99462.72;4830595;29;20204;-87
2023/09/16 11:24:52;;;;;;;3.65;2.10;;;;;;;26.90;88.91;99471.28;4848624;29;20205;-87
2023/09/16 11:27:22;;;;;;;2.22;1.95;;;;;;;26.94;87.30;99455.72;4813483;29;20309;-87
2023/09/16 11:29:53;;;;;;;2.63;1.80;;;;;;;26.97;86.62;99463.34;4847622;29;20205;-86
2023/09/16 11:32:24;;;;;;;3.35;2.08;;;;;;;27.13;85.83;99456.91;4842273;29;20222;-87
2023/09/16 11:34:59;;;;;;;2.95;2.20;;;;;;;27.28;85.88;99443.72;4857298;29;20231;-87
2023/09/16 11:37:30;;;;;;;2.90;2.05;;;;;;;27.44;84.29;99444.72;4842989;29;20285;-87
2023/09/16 11:40:02;;;;;;;2.58;2.10;;;;;;;27.32;82.86;99444.66;4821715;29;20272;-88
2023/09/16 11:42:33;;;;;;;4.97;2.20;;;;;;;27.27;82.27;99440.16;4844619;29;20224;-87
2023/09/16 11:45:02;;;;;;;3.30;2.08;;;;;;;27.26;82.94;99438.53;4852007;29;20213;-89
2023/09/16 11:47:33;;;;;;;2.13;1.92;;;;;;;27.19;82.97;99449.28;4824840;29;20634;-87
2023/09/16 11:50:22;;;;;;;2.30;2.10;;;;;;;27.26;80.94;99435.78;4836297;29;20243;-88
2023/09/16 11:52:51;;;;;;;2.17;1.98;;;;;;;27.23;80.17;99425.47;4842410;29;20209;-87
2023/09/16 11:55:31;;;;;;;2.22;2.00;;;;;;;27.22;79.32;99437.59;4813381;29;20209;-87
2023/09/16 11:58:02;;;;;;;2.03;1.92;;;;;;;27.15;79.91;99429.91;4836827;29;20235;-88
2023/09/16 12:00:33;;;;;;;3.92;1.80;;;;;;;27.22;80.31;99436.78;4842684;29;20244;-88
2023/09/16 12:03:02;;;;;;;2.30;1.80;;;;;;;27.26;80.51;99430.28;4822040;29;20224;-87
2023/09/16 12:05:34;;;;;;;2.00;1.90;;;;;;;27.37;81.50;99419.69;4823931;29;20213;-87
2023/09/16 12:08:03;;;;;;;2.42;2.22;;;;;;;27.45;78.18;99416.06;4841275;29;20217;-87
2023/09/16 12:10:32;;;;;;;2.17;1.98;;;;;;;27.53;77.48;99420.72;4824714;29;20205;-88
2023/09/16 12:13:01;;;;;;;3.17;1.80;;;;;;;27.51;77.45;99420.28;4822346;29;20205;-87
2023/09/16 12:15:34;;;;;;;1.95;1.85;;;;;;;27.54;78.80;99417.63;4828337;29;20655;-87
2023/09/16 12:18:02;;;;;;;2.17;2.08;;;;;;;27.44;78.07;99417.19;4822085;29;20201;-87
2023/09/16 12:20:32;;;;;;;2.63;2.20;;;;;;;27.52;77.60;99424.63;4827003;29;20589;-88
2023/09/16 12:23:02;;;;;;;2.10;2.00;;;;;;;27.46;76.54;99417.69;4827808;29;20288;-88
2023/09/16 12:25:41;;;;;;;2.83;2.13;;;;;;;27.65;77.09;99415.28;4823445;29;20217;-87
2023/09/16 12:28:16;;;;;;;2.10;1.90;;;;;;;27.67;76.99;99417.72;4828265;29;20270;-87
2023/09/16 12:30:48;;;;;;;2.17;1.98;;;;;;;27.76;76.88;99413.75;4837826;29;20222;-87
2023/09/16 12:33:20;;;;;;;2.05;1.95;;;;;;;27.82;76.28;99423.38;4823248;29;20213;-87
2023/09/16 12:35:52;;;;;;;2.20;2.00;;;;;;;27.84;73.78;99407.34;4821298;29;20687;-87
2023/09/16 12:38:22;;;;;;;2.17;1.98;;;;;;;28.03;74.50;99415.88;4816079;29;20706;-87
2023/09/16 12:40:49;;;;;;;2.38;2.00;;;;;;;28.18;73.42;99408.16;4826639;29;20241;-87
2023/09/16 12:43:17;;;;;;;2.90;1.95;;;;;;;28.14;72.54;99401.69;4826823;29;20213;-87
2023/09/16 12:45:47;;;;;;;3.25;2.33;;;;;;;28.09;73.30;99393.66;4824345;29;20213;-86
2023/09/16 12:48:14;;;;;;;2.60;2.10;;;;;;;28.10;73.11;99395.22;4823434;29;20237;-87
2023/09/16 12:50:44;;;;;;;2.35;1.90;;;;;;;28.17;73.04;99399.09;4825671;29;20659;-87
2023/09/16 12:53:15;;;;;;;1.95;1.60;;;;;;;28.23;73.94;99403.19;4812372;29;20324;-87
2023/09/16 12:55:47;;;;;;;2.00;1.90;;;;;;;28.15;71.58;99393.09;4841480;29;20201;-87
2023/09/16 12:58:18;;;;;;;4.38;2.20;;;;;;;28.29;70.92;99392.78;4820664;29;20300;-87
2023/09/16 13:00:50;;;;;;;4.25;2.25;;;;;;;28.21;71.39;99399.19;4841835;29;20220;-87
2023/09/16 13:03:24;;;;;;;2.40;2.25;;;;;;;28.35;70.86;99400.47;4838162;29;20209;-87
2023/09/16 13:05:57;;;;;;;2.50;2.30;;;;;;;28.22;70.30;99401.63;4827126;29;20208;-87
2023/09/16 13:08:25;;;;;;;2.33;2.20;;;;;;;28.26;70.24;99390.72;4836787;29;20206;-87
2023/09/16 13:10:57;;;;;;;2.10;2.00;;;;;;;28.33;70.53;99400.00;4809081;29;20217;-86
2023/09/16 13:13:28;;;;;;;2.60;2.40;;;;;;;28.38;70.27;99379.69;4823246;29;20205;-87
2023/09/16 13:16:03;;;;;;;4.28;2.47;;;;;;;28.29;70.11;99379.81;4827262;29;20201;-87
2023/09/16 13:18:36;;;;;;;2.50;2.05;;;;;;;28.27;69.89;99370.28;4821413;29;20223;-88
2023/09/16 13:21:03;;;;;;;2.50;2.30;;;;;;;28.20;69.30;99379.09;4823345;29;20225;-87
2023/09/16 13:23:32;;;;;;;2.45;1.98;;;;;;;28.23;69.81;99378.41;4850471;29;20200;-88
2023/09/16 13:26:13;;;;;;;2.17;2.08;;;;;;;28.24;70.43;99381.97;4850100;29;20209;-87
2023/09/16 13:28:58;;;;;;;2.20;2.10;;;;;;;28.35;68.37;99374.88;4811952;29;20270;-87
2023/09/16 13:31:36;;;;;;;2.80;2.10;;;;;;;28.37;68.18;99376.13;4825971;29;20213;-88
2023/09/16 13:34:07;;;;;;;2.33;2.15;;;;;;;28.27;68.84;99371.09;4840889;29;20208;-87
2023/09/16 13:36:40;;;;;;;1.90;1.80;;;;;;;28.29;69.16;99379.81;4825955;29;20299;-87
2023/09/16 13:39:11;;;;;;;1.90;1.80;;;;;;;28.17;68.34;99366.03;4817200;29;20236;-87
2023/09/16 13:41:40;;;;;;;2.00;1.90;;;;;;;28.24;69.73;99368.19;4846514;29;20225;-87
2023/09/16 13:44:08;;;;;;;3.60;2.10;;;;;;;28.24;69.67;99369.00;4832729;29;20345;-87
2023/09/16 13:46:36;;;;;;;2.30;1.80;;;;;;;28.29;69.52;99373.50;4848251;29;20209;-88
2023/09/16 13:49:05;;;;;;;3.22;2.13;;;;;;;28.33;68.13;99369.69;4825367;29;20225;-87
2023/09/16 13:51:39;;;;;;;2.60;1.90;;;;;;;28.20;68.18;99373.59;4818619;29;20205;-87
2023/09/16 13:54:13;;;;;;;1.92;1.83;;;;;;;28.15;68.56;99367.50;4823863;29;20209;-87
2023/09/16 13:56:45;;;;;;;2.45;1.70;;;;;;;28.16;68.42;99366.38;4836765;29;20208;-87
2023/09/16 13:59:12;;;;;;;2.47;2.00;;;;;;;28.23;69.30;99367.41;4825613;29;20303;-87
2023/09/16 14:01:40;;;;;;;2.65;2.13;;;;;;;28.18;68.81;99358.56;4841600;29;20224;-87
2023/09/16 14:04:12;;;;;;;2.20;2.00;;;;;;;28.14;69.02;99366.69;4809663;29;20213;-85
2023/09/16 14:06:40;;;;;;;2.30;2.10;;;;;;;28.22;69.36;99368.56;4826223;29;20219;-87
2023/09/16 14:09:14;;;;;;;2.80;2.10;;;;;;;28.01;68.88;99362.28;4810619;29;20202;-87
2023/09/16 14:11:42;;;;;;;3.83;2.10;;;;;;;28.22;68.75;99371.31;4825788;29;20678;-87
2023/09/16 14:14:10;;;;;;;3.78;2.15;;;;;;;28.15;67.95;99359.25;4809848;29;20233;-87
2023/09/16 14:16:41;;;;;;;2.45;1.95;;;;;;;28.09;68.38;99355.88;4824446;29;20213;-87
2023/09/16 14:19:15;;;;;;;3.72;2.00;;;;;;;27.96;68.23;99357.00;4822113;29;20215;-87
2023/09/16 14:21:45;;;;;;;2.08;1.75;;;;;;;27.88;68.74;99355.97;4825104;29;20235;-87
2023/09/16 14:24:12;;;;;;;3.70;2.22;;;;;;;27.91;69.12;99343.44;4837576;29;20212;-87
2023/09/16 14:26:45;;;;;;;3.50;2.30;;;;;;;27.98;68.46;99343.72;4827709;29;20209;-87
2023/09/16 14:29:12;;;;;;;3.63;2.00;;;;;;;27.99;68.59;99343.38;4824544;29;20692;-85
2023/09/16 14:31:43;;;;;;;2.13;1.73;;;;;;;28.03;68.12;99351.75;4815566;29;20218;-87
2023/09/16 14:34:13;;;;;;;2.28;2.15;;;;;;;28.04;68.12;99345.09;4814855;29;20213;-87
2023/09/16 14:36:44;;;;;;;2.30;2.10;;;;;;;27.99;68.45;99350.81;4809283;29;20221;-87
2023/09/16 14:39:17;;;;;;;3.45;1.75;;;;;;;27.99;67.65;99335.13;4821509;29;20267;-87
2023/09/16 14:41:48;;;;;;;1.83;1.70;;;;;;;28.17;67.99;99338.50;4840752;29;20797;-87
2023/09/16 14:44:18;;;;;;;2.42;2.00;;;;;;;28.21;68.09;99338.59;4826200;29;20205;-87
2023/09/16 14:46:48;;;;;;;2.97;1.90;;;;;;;28.17;66.92;99349.50;4830477;29;20213;-87
2023/09/16 14:49:17;;;;;;;2.90;1.85;;;;;;;28.05;67.08;99352.19;4828033;29;20248;-87
2023/09/16 14:51:47;;;;;;;2.30;1.98;;;;;;;28.07;67.43;99341.66;4813699;29;20324;-85
2023/09/16 14:54:14;;;;;;;1.80;1.70;;;;;;;28.16;67.36;99347.91;4828460;29;20255;-87
2023/09/16 14:56:44;;;;;;;2.25;2.15;;;;;;;28.21;66.94;99342.16;4820912;29;20208;-87
2023/09/16 14:59:13;;;;;;;1.95;1.83;;;;;;;28.07;66.39;99340.84;4847518;29;20193;-87
2023/09/16 15:01:46;;;;;;;2.67;1.60;;;;;;;27.92;67.33;99336.81;4831293;29;20233;-87
2023/09/16 15:04:16;;;;;;;3.67;1.80;;;;;;;27.85;67.51;99334.63;4810786;29;20224;-87
2023/09/16 15:06:46;;;;;;;4.03;1.80;;;;;;;27.65;67.72;99332.72;4826437;29;20527;-87
2023/09/16 15:09:17;;;;;;;1.98;1.88;;;;;;;27.56;68.41;99329.25;4843443;29;20213;-87
2023/09/16 15:11:45;;;;;;;2.95;2.03;;;;;;;27.36;67.90;99328.13;4826069;29;20221;-87
2023/09/16 15:14:14;;;;;;;2.22;2.10;;;;;;;27.16;68.74;99328.94;4835496;29;20300;-86
2023/09/16 15:16:42;;;;;;;2.00;1.90;;;;;;;27.19;69.31;99336.53;4841462;29;20193;-85
2023/09/16 15:19:15;;;;;;;1.98;1.75;;;;;;;27.04;68.88;99329.69;4839292;29;20201;-87
2023/09/16 15:21:44;;;;;;;4.50;2.30;;;;;;;26.96;68.74;99333.31;4838075;29;20224;-87
2023/09/16 15:24:14;;;;;;;2.90;2.00;;;;;;;26.82;69.49;99337.44;4810252;29;20217;-87
2023/09/16 15:26:42;;;;;;;2.58;2.30;;;;;;;26.72;70.67;99333.13;4840818;29;20213;-87
2023/09/16 15:29:09;;;;;;;3.95;2.28;;;;;;;26.72;70.78;99335.88;4824866;29;20205;-88
2023/09/16 15:31:40;;;;;;;2.20;1.98;;;;;;;26.65;71.14;99332.84;4827221;29;20659;-87
2023/09/16 15:34:11;;;;;;;2.20;2.00;;;;;;;26.59;71.49;99331.44;4827789;29;20233;-87
2023/09/16 15:36:53;;;;;;;2.45;1.80;;;;;;;26.51;71.66;99324.03;4840393;29;20220;-87
2023/09/16 15:39:22;;;;;;;2.95;1.98;;;;;;;26.41;72.07;99319.72;4822247;29;20718;-89
2023/09/16 15:41:57;;;;;;;3.08;2.05;;;;;;;26.18;72.28;99316.41;4842403;29;20225;-88
2023/09/16 15:44:28;;;;;;;2.00;1.90;;;;;;;26.15;72.82;99333.56;4828243;29;20237;-87
2023/09/16 15:47:01;;;;;;;2.17;1.90;;;;;;;26.04;73.69;99324.06;4824534;29;20221;-87
2023/09/16 15:49:37;;;;;;;2.00;1.80;;;;;;;26.02;73.66;99325.53;4838933;29;20221;-87
2023/09/16 15:52:04;;;;;;;3.72;2.10;;;;;;;26.05;74.18;99322.94;4819935;29;20273;-88
2023/09/16 15:54:35;;;;;;;2.00;1.90;;;;;;;25.83;75.73;99332.22;4826551;29;20663;-87
2023/09/16 15:57:03;;;;;;;4.22;1.98;;;;;;;25.78;74.96;99335.13;4842488;29;20221;-87
2023/09/16 15:59:33;;;;;;;2.03;1.90;;;;;;;25.65;75.26;99327.09;4840960;29;20725;-87
2023/09/16 16:02:03;;;;;;;3.58;2.10;;;;;;;25.58;76.52;99326.78;4802201;29;20238;-87
2023/09/16 16:04:31;;;;;;;3.47;2.00;;;;;;;25.57;76.11;99328.72;4838021;29;20666;-87
2023/09/16 16:07:06;;;;;;;2.20;2.00;;;;;;;25.41;76.80;99335.81;4837151;29;20202;-88
2023/09/16 16:09:36;;;;;;;2.10;1.88;;;;;;;25.29;77.09;99339.19;4822677;29;20217;-87
2023/09/16 16:12:12;;;;;;;2.80;1.73;;;;;;;25.25;77.90;99343.72;4856082;29;20201;-87
2023/09/16 16:14:40;;;;;;;2.95;1.85;;;;;;;25.13;78.52;99338.09;4826405;29;20209;-87
2023/09/16 16:17:08;;;;;;;2.80;1.90;;;;;;;24.98;78.90;99322.94;4820579;29;20262;-87
2023/09/16 16:19:50;;;;;;;2.95;2.08;;;;;;;24.91;79.60;99330.84;4826297;29;20706;-86
2023/09/16 16:22:18;;;;;;;3.65;2.10;;;;;;;24.75;80.59;99329.66;4820809;29;20248;-87
2023/09/16 16:24:46;;;;;;;3.38;1.90;;;;;;;24.70;80.81;99331.72;4819165;29;20205;-87
2023/09/16 16:27:14;;;;;;;2.00;1.63;;;;;;;24.58;81.58;99331.56;4841392;29;20279;-87
2023/09/16 16:29:44;;;;;;;1.92;1.83;;;;;;;24.46;82.85;99330.22;4826155;29;20277;-87
2023/09/16 16:32:15;;;;;;;6.03;4.47;;;;;;;24.35;82.89;99328.91;4826558;29;20214;-88
2023/09/16 16:34:48;;;;;;;2.40;2.20;;;;;;;24.34;83.51;99332.78;4826152;29;20201;-87
2023/09/16 16:37:16;;;;;;;3.88;3.10;;;;;;;24.22;84.54;99334.47;4830652;29;20205;-87
2023/09/16 16:39:44;;;;;;;5.03;2.10;;;;;;;24.08;85.92;99335.38;4826215;29;20248;-86